sensor_id;sensor_type;location;lat;lon;timestamp;pressure;altitude;pressure_sealevel;temperature;humidity
9855;BME280;4966;48.112;9.282;2023-04-30T00:01:35;94880.72;;;12.00;75.02
9855;BME280;4966;48.112;9.282;2023-04-30T00:04:01;94876.59;;;11.81;76.15
9855;BME280;4966;48.112;9.282;2023-04-30T00:06:29;94881.91;;;11.78;76.85
9855;BME280;4966;48.112;9.282;2023-04-30T00:08:56;94887.06;;;11.91;76.26
9855;BME280;4966;48.112;9.282;2023-04-30T00:11:22;94889.69;;;12.00;75.76
9855;BME280;4966;48.112;9.282;2023-04-30T00:13:50;94887.88;;;12.04;75.92
9855;BME280;4966;48.112;9.282;2023-04-30T00:16:17;94881.28;;;12.05;76.13
9855;BME280;4966;48.112;9.282;2023-04-30T00:18:43;94881.38;;;12.09;75.10
9855;BME280;4966;48.112;9.282;2023-04-30T00:21:12;94888.22;;;12.03;75.89
9855;BME280;4966;48.112;9.282;2023-04-30T00:23:43;94883.56;;;11.91;75.36
9855;BME280;4966;48.112;9.282;2023-04-30T00:26:11;94891.41;;;12.05;74.72
9855;BME280;4966;48.112;9.282;2023-04-30T00:28:37;94890.38;;;11.97;74.69
9855;BME280;4966;48.112;9.282;2023-04-30T00:31:03;94887.03;;;12.16;74.15
9855;BME280;4966;48.112;9.282;2023-04-30T00:33:31;94888.09;;;12.11;74.88
9855;BME280;4966;48.112;9.282;2023-04-30T00:35:57;94893.97;;;12.26;73.93
9855;BME280;4966;48.112;9.282;2023-04-30T00:38:23;94881.03;;;12.23;74.09
9855;BME280;4966;48.112;9.282;2023-04-30T00:40:52;94875.03;;;12.05;74.72
9855;BME280;4966;48.112;9.282;2023-04-30T00:43:18;94876.28;;;11.95;75.11
9855;BME280;4966;48.112;9.282;2023-04-30T00:45:46;94867.31;;;12.07;74.49
9855;BME280;4966;48.112;9.282;2023-04-30T00:48:12;94870.47;;;11.97;74.94
9855;BME280;4966;48.112;9.282;2023-04-30T00:50:42;94875.25;;;11.87;74.93
9855;BME280;4966;48.112;9.282;2023-04-30T00:53:10;94873.78;;;12.15;74.20
9855;BME280;4966;48.112;9.282;2023-04-30T00:55:39;94871.06;;;12.02;74.71
9855;BME280;4966;48.112;9.282;2023-04-30T00:58:09;94865.16;;;11.76;75.86
9855;BME280;4966;48.112;9.282;2023-04-30T01:00:35;94866.50;;;11.69;75.75
9855;BME280;4966;48.112;9.282;2023-04-30T01:03:04;94863.53;;;11.99;74.85
9855;BME280;4966;48.112;9.282;2023-04-30T01:05:32;94863.22;;;12.01;75.09
9855;BME280;4966;48.112;9.282;2023-04-30T01:08:01;94860.25;;;11.57;76.14
9855;BME280;4966;48.112;9.282;2023-04-30T01:10:38;94863.31;;;11.67;76.37
9855;BME280;4966;48.112;9.282;2023-04-30T01:13:18;94867.03;;;11.75;75.96
9855;BME280;4966;48.112;9.282;2023-04-30T01:15:55;94871.47;;;11.80;76.23
9855;BME280;4966;48.112;9.282;2023-04-30T01:18:27;94866.59;;;11.73;76.36
9855;BME280;4966;48.112;9.282;2023-04-30T01:21:04;94870.25;;;11.89;75.76
9855;BME280;4966;48.112;9.282;2023-04-30T01:26:42;94866.97;;;11.96;74.96
9855;BME280;4966;48.112;9.282;2023-04-30T01:29:18;94855.59;;;11.82;75.90
9855;BME280;4966;48.112;9.282;2023-04-30T01:31:46;94853.78;;;11.61;76.99
9855;BME280;4966;48.112;9.282;2023-04-30T01:34:12;94856.84;;;11.72;76.67
9855;BME280;4966;48.112;9.282;2023-04-30T01:42:20;94855.34;;;11.38;78.49
9855;BME280;4966;48.112;9.282;2023-04-30T01:51:07;94862.56;;;11.21;79.12
9855;BME280;4966;48.112;9.282;2023-04-30T01:53:43;94852.06;;;10.99;80.18
9855;BME280;4966;48.112;9.282;2023-04-30T01:56:27;94850.72;;;11.05;79.66
9855;BME280;4966;48.112;9.282;2023-04-30T01:58:57;94847.19;;;10.92;80.59
9855;BME280;4966;48.112;9.282;2023-04-30T02:01:28;94858.19;;;10.96;80.34
9855;BME280;4966;48.112;9.282;2023-04-30T02:03:58;94855.66;;;10.57;82.23
9855;BME280;4966;48.112;9.282;2023-04-30T02:06:25;94847.13;;;10.47;82.91
9855;BME280;4966;48.112;9.282;2023-04-30T02:08:54;94838.59;;;10.69;81.73
9855;BME280;4966;48.112;9.282;2023-04-30T02:11:30;94835.69;;;10.53;81.59
9855;BME280;4966;48.112;9.282;2023-04-30T02:13:56;94835.91;;;10.48;82.81
9855;BME280;4966;48.112;9.282;2023-04-30T02:16:22;94834.19;;;10.43;82.85
9855;BME280;4966;48.112;9.282;2023-04-30T02:18:49;94824.97;;;10.57;81.39
9855;BME280;4966;48.112;9.282;2023-04-30T02:21:15;94830.25;;;10.53;81.80
9855;BME280;4966;48.112;9.282;2023-04-30T02:23:43;94831.75;;;10.30;82.76
9855;BME280;4966;48.112;9.282;2023-04-30T02:26:11;94834.91;;;10.32;82.91
9855;BME280;4966;48.112;9.282;2023-04-30T02:28:37;94839.81;;;10.59;81.50
9855;BME280;4966;48.112;9.282;2023-04-30T02:31:03;94844.66;;;10.54;81.57
9855;BME280;4966;48.112;9.282;2023-04-30T02:33:31;94842.75;;;10.54;81.47
9855;BME280;4966;48.112;9.282;2023-04-30T02:35:59;94841.13;;;10.53;81.17
9855;BME280;4966;48.112;9.282;2023-04-30T02:38:32;94841.06;;;10.62;81.29
9855;BME280;4966;48.112;9.282;2023-04-30T02:40:58;94836.09;;;10.64;81.34
9855;BME280;4966;48.112;9.282;2023-04-30T02:43:28;94834.56;;;10.75;80.12
9855;BME280;4966;48.112;9.282;2023-04-30T02:45:54;94836.13;;;10.76;80.32
9855;BME280;4966;48.112;9.282;2023-04-30T02:48:21;94841.75;;;10.59;81.05
9855;BME280;4966;48.112;9.282;2023-04-30T02:50:47;94837.47;;;10.70;80.71
9855;BME280;4966;48.112;9.282;2023-04-30T02:53:15;94840.44;;;10.77;80.16
9855;BME280;4966;48.112;9.282;2023-04-30T02:55:44;94838.50;;;10.66;81.12
9855;BME280;4966;48.112;9.282;2023-04-30T02:58:10;94832.38;;;10.48;82.42
9855;BME280;4966;48.112;9.282;2023-04-30T03:00:38;94842.03;;;10.78;81.00
9855;BME280;4966;48.112;9.282;2023-04-30T03:03:04;94835.38;;;10.55;82.17
9855;BME280;4966;48.112;9.282;2023-04-30T03:05:30;94830.50;;;10.60;81.93
9855;BME280;4966;48.112;9.282;2023-04-30T03:07:58;94840.44;;;10.77;80.93
9855;BME280;4966;48.112;9.282;2023-04-30T03:10:26;94839.28;;;10.99;80.01
9855;BME280;4966;48.112;9.282;2023-04-30T03:12:53;94850.69;;;10.93;80.38
9855;BME280;4966;48.112;9.282;2023-04-30T03:15:18;94847.50;;;10.91;80.43
9855;BME280;4966;48.112;9.282;2023-04-30T03:17:44;94851.47;;;10.81;81.27
9855;BME280;4966;48.112;9.282;2023-04-30T03:20:10;94848.47;;;11.07;79.98
9855;BME280;4966;48.112;9.282;2023-04-30T03:22:39;94847.66;;;10.94;80.84
9855;BME280;4966;48.112;9.282;2023-04-30T03:25:09;94847.78;;;11.10;79.39
9855;BME280;4966;48.112;9.282;2023-04-30T03:27:35;94842.09;;;11.03;79.78
9855;BME280;4966;48.112;9.282;2023-04-30T03:30:03;94842.56;;;11.05;80.13
9855;BME280;4966;48.112;9.282;2023-04-30T03:32:29;94849.75;;;11.34;78.64
9855;BME280;4966;48.112;9.282;2023-04-30T03:34:55;94851.72;;;11.46;78.10
9855;BME280;4966;48.112;9.282;2023-04-30T03:37:21;94847.63;;;11.52;77.41
9855;BME280;4966;48.112;9.282;2023-04-30T03:39:58;94838.56;;;11.60;77.51
9855;BME280;4966;48.112;9.282;2023-04-30T03:42:27;94845.03;;;11.68;77.09
9855;BME280;4966;48.112;9.282;2023-04-30T03:44:55;94843.75;;;11.41;77.82
9855;BME280;4966;48.112;9.282;2023-04-30T03:47:21;94841.03;;;11.41;77.51
9855;BME280;4966;48.112;9.282;2023-04-30T03:49:49;94840.41;;;11.11;78.56
9855;BME280;4966;48.112;9.282;2023-04-30T03:52:19;94841.28;;;10.90;79.66
9855;BME280;4966;48.112;9.282;2023-04-30T03:54:45;94829.66;;;10.69;81.62
9855;BME280;4966;48.112;9.282;2023-04-30T03:57:11;94842.78;;;11.00;80.51
9855;BME280;4966;48.112;9.282;2023-04-30T03:59:39;94833.22;;;10.94;80.04
9855;BME280;4966;48.112;9.282;2023-04-30T04:02:05;94833.31;;;10.73;81.65
9855;BME280;4966;48.112;9.282;2023-04-30T04:04:33;94840.84;;;10.67;82.14
9855;BME280;4966;48.112;9.282;2023-04-30T04:07:01;94845.22;;;10.80;81.41
9855;BME280;4966;48.112;9.282;2023-04-30T04:09:28;94841.81;;;10.83;81.83
9855;BME280;4966;48.112;9.282;2023-04-30T04:11:56;94835.53;;;11.04;80.64
9855;BME280;4966;48.112;9.282;2023-04-30T04:14:22;94852.16;;;10.90;80.62
9855;BME280;4966;48.112;9.282;2023-04-30T04:16:50;94842.38;;;11.22;79.14
9855;BME280;4966;48.112;9.282;2023-04-30T04:19:16;94855.03;;;11.06;80.80
9855;BME280;4966;48.112;9.282;2023-04-30T04:21:45;94852.50;;;10.89;80.70
9855;BME280;4966;48.112;9.282;2023-04-30T04:24:18;94858.25;;;11.20;79.41
9855;BME280;4966;48.112;9.282;2023-04-30T04:26:46;94854.41;;;11.21;79.62
9855;BME280;4966;48.112;9.282;2023-04-30T04:29:11;94850.91;;;11.33;78.92
9855;BME280;4966;48.112;9.282;2023-04-30T04:31:37;94853.09;;;11.40;78.77
9855;BME280;4966;48.112;9.282;2023-04-30T04:34:09;94853.72;;;11.24;78.37
9855;BME280;4966;48.112;9.282;2023-04-30T04:36:38;94857.38;;;11.41;77.84
9855;BME280;4966;48.112;9.282;2023-04-30T04:39:04;94856.84;;;11.60;77.16
9855;BME280;4966;48.112;9.282;2023-04-30T04:41:31;94853.56;;;11.54;77.33
9855;BME280;4966;48.112;9.282;2023-04-30T04:44:00;94851.75;;;11.00;78.65
9855;BME280;4966;48.112;9.282;2023-04-30T04:46:29;94849.91;;;11.50;77.97
9855;BME280;4966;48.112;9.282;2023-04-30T04:49:00;94858.63;;;11.43;77.49
9855;BME280;4966;48.112;9.282;2023-04-30T04:51:26;94859.44;;;11.56;77.67
9855;BME280;4966;48.112;9.282;2023-04-30T04:53:54;94865.78;;;10.90;79.79
9855;BME280;4966;48.112;9.282;2023-04-30T04:56:20;94860.94;;;11.08;79.32
9855;BME280;4966;48.112;9.282;2023-04-30T04:58:51;94852.47;;;11.22;79.23
9855;BME280;4966;48.112;9.282;2023-04-30T05:01:17;94853.78;;;11.61;77.13
9855;BME280;4966;48.112;9.282;2023-04-30T05:03:43;94860.19;;;11.32;77.92
9855;BME280;4966;48.112;9.282;2023-04-30T05:06:08;94857.44;;;11.07;79.25
9855;BME280;4966;48.112;9.282;2023-04-30T05:08:37;94857.09;;;11.09;79.54
9855;BME280;4966;48.112;9.282;2023-04-30T05:11:03;94855.63;;;11.12;79.66
9855;BME280;4966;48.112;9.282;2023-04-30T05:13:28;94860.88;;;11.29;78.78
9855;BME280;4966;48.112;9.282;2023-04-30T05:15:57;94848.22;;;11.00;80.34
9855;BME280;4966;48.112;9.282;2023-04-30T05:18:28;94848.31;;;10.91;80.16
9855;BME280;4966;48.112;9.282;2023-04-30T05:20:56;94852.41;;;11.43;78.50
9855;BME280;4966;48.112;9.282;2023-04-30T05:23:25;94861.06;;;10.99;79.51
9855;BME280;4966;48.112;9.282;2023-04-30T05:25:51;94856.38;;;11.45;78.13
9855;BME280;4966;48.112;9.282;2023-04-30T05:28:19;94851.00;;;11.37;78.45
9855;BME280;4966;48.112;9.282;2023-04-30T05:30:45;94850.69;;;11.38;78.46
9855;BME280;4966;48.112;9.282;2023-04-30T05:33:13;94845.56;;;11.24;78.70
9855;BME280;4966;48.112;9.282;2023-04-30T05:35:39;94850.66;;;11.14;79.00
9855;BME280;4966;48.112;9.282;2023-04-30T05:38:05;94846.25;;;11.46;77.51
9855;BME280;4966;48.112;9.282;2023-04-30T05:40:31;94847.78;;;11.10;78.48
9855;BME280;4966;48.112;9.282;2023-04-30T05:42:56;94847.09;;;11.01;79.53
9855;BME280;4966;48.112;9.282;2023-04-30T05:45:22;94846.50;;;11.41;77.41
9855;BME280;4966;48.112;9.282;2023-04-30T05:47:48;94846.25;;;11.34;77.97
9855;BME280;4966;48.112;9.282;2023-04-30T05:50:16;94847.25;;;10.83;79.72
9855;BME280;4966;48.112;9.282;2023-04-30T05:52:42;94848.69;;;11.02;78.85
9855;BME280;4966;48.112;9.282;2023-04-30T05:55:10;94852.88;;;11.57;76.51
9855;BME280;4966;48.112;9.282;2023-04-30T05:57:36;94849.53;;;11.39;77.47
9855;BME280;4966;48.112;9.282;2023-04-30T06:00:05;94857.31;;;11.99;74.88
9855;BME280;4966;48.112;9.282;2023-04-30T06:02:34;94861.13;;;11.73;75.90
9855;BME280;4966;48.112;9.282;2023-04-30T06:05:02;94859.56;;;12.21;73.65
9855;BME280;4966;48.112;9.282;2023-04-30T06:07:28;94863.75;;;11.33;75.85
9855;BME280;4966;48.112;9.282;2023-04-30T06:10:02;94872.16;;;11.40;76.98
9855;BME280;4966;48.112;9.282;2023-04-30T06:12:27;94860.03;;;11.04;77.19
9855;BME280;4966;48.112;9.282;2023-04-30T06:14:53;94861.16;;;11.03;77.62
9855;BME280;4966;48.112;9.282;2023-04-30T06:17:22;94869.53;;;11.56;76.29
9855;BME280;4966;48.112;9.282;2023-04-30T06:19:48;94868.53;;;11.60;74.91
9855;BME280;4966;48.112;9.282;2023-04-30T06:22:13;94873.88;;;11.81;74.43
9855;BME280;4966;48.112;9.282;2023-04-30T06:24:44;94862.84;;;11.78;74.53
9855;BME280;4966;48.112;9.282;2023-04-30T06:27:12;94867.88;;;11.76;73.40
9855;BME280;4966;48.112;9.282;2023-04-30T06:29:43;94862.50;;;11.55;74.51
9855;BME280;4966;48.112;9.282;2023-04-30T06:32:09;94864.00;;;12.13;72.51
9855;BME280;4966;48.112;9.282;2023-04-30T06:34:35;94867.03;;;11.75;73.13
9855;BME280;4966;48.112;9.282;2023-04-30T06:37:01;94868.22;;;11.99;72.96
9855;BME280;4966;48.112;9.282;2023-04-30T06:39:27;94862.06;;;12.14;72.36
9855;BME280;4966;48.112;9.282;2023-04-30T06:41:53;94859.22;;;12.23;70.77
9855;BME280;4966;48.112;9.282;2023-04-30T06:44:22;94869.06;;;11.54;73.60
9855;BME280;4966;48.112;9.282;2023-04-30T06:46:50;94872.03;;;11.61;73.96
9855;BME280;4966;48.112;9.282;2023-04-30T06:49:19;94874.31;;;12.20;71.95
9855;BME280;4966;48.112;9.282;2023-04-30T06:51:44;94876.97;;;12.04;72.17
9855;BME280;4966;48.112;9.282;2023-04-30T06:54:15;94869.22;;;11.69;73.68
9855;BME280;4966;48.112;9.282;2023-04-30T06:56:41;94860.81;;;11.75;72.99
9855;BME280;4966;48.112;9.282;2023-04-30T06:59:08;94873.31;;;11.76;73.15
9855;BME280;4966;48.112;9.282;2023-04-30T07:01:34;94869.91;;;11.54;74.06
9855;BME280;4966;48.112;9.282;2023-04-30T07:04:00;94865.56;;;11.78;72.51
9855;BME280;4966;48.112;9.282;2023-04-30T07:06:28;94867.41;;;11.74;72.52
9855;BME280;4966;48.112;9.282;2023-04-30T07:08:55;94867.38;;;12.23;72.32
9855;BME280;4966;48.112;9.282;2023-04-30T07:11:24;94855.69;;;12.63;70.63
9855;BME280;4966;48.112;9.282;2023-04-30T07:13:49;94854.00;;;11.81;72.25
9855;BME280;4966;48.112;9.282;2023-04-30T07:16:16;94861.94;;;12.10;72.63
9855;BME280;4966;48.112;9.282;2023-04-30T07:18:41;94867.09;;;12.00;71.60
9855;BME280;4966;48.112;9.282;2023-04-30T07:21:07;94866.56;;;12.34;70.30
9855;BME280;4966;48.112;9.282;2023-04-30T07:23:33;94869.63;;;12.45;71.24
9855;BME280;4966;48.112;9.282;2023-04-30T07:25:59;94864.81;;;12.54;69.78
9855;BME280;4966;48.112;9.282;2023-04-30T07:28:28;94868.09;;;12.20;70.77
9855;BME280;4966;48.112;9.282;2023-04-30T07:30:53;94869.63;;;12.45;69.46
9855;BME280;4966;48.112;9.282;2023-04-30T07:33:19;94867.75;;;12.62;69.02
9855;BME280;4966;48.112;9.282;2023-04-30T07:35:50;94867.06;;;12.65;69.45
9855;BME280;4966;48.112;9.282;2023-04-30T07:38:19;94859.47;;;12.58;70.21
9855;BME280;4966;48.112;9.282;2023-04-30T07:40:45;94858.03;;;12.76;68.77
9855;BME280;4966;48.112;9.282;2023-04-30T07:43:11;94865.41;;;13.04;67.45
9855;BME280;4966;48.112;9.282;2023-04-30T07:45:36;94864.69;;;11.98;70.45
9855;BME280;4966;48.112;9.282;2023-04-30T07:48:09;94853.44;;;12.93;67.69
9855;BME280;4966;48.112;9.282;2023-04-30T07:50:40;94860.75;;;13.49;66.03
9855;BME280;4966;48.112;9.282;2023-04-30T07:53:09;94863.69;;;13.56;66.32
9855;BME280;4966;48.112;9.282;2023-04-30T07:55:34;94864.81;;;12.83;66.73
9855;BME280;4966;48.112;9.282;2023-04-30T07:58:00;94864.38;;;13.69;64.76
9855;BME280;4966;48.112;9.282;2023-04-30T08:00:28;94861.09;;;13.95;64.40
9855;BME280;4966;48.112;9.282;2023-04-30T08:02:55;94862.22;;;14.61;62.95
9855;BME280;4966;48.112;9.282;2023-04-30T08:05:28;94867.59;;;14.77;61.00
9855;BME280;4966;48.112;9.282;2023-04-30T08:07:54;94863.16;;;14.88;60.66
9855;BME280;4966;48.112;9.282;2023-04-30T08:10:25;94863.78;;;14.62;60.89
9855;BME280;4966;48.112;9.282;2023-04-30T08:12:51;94862.91;;;14.58;60.82
9855;BME280;4966;48.112;9.282;2023-04-30T08:15:17;94853.63;;;14.62;61.87
9855;BME280;4966;48.112;9.282;2023-04-30T08:17:48;94848.16;;;15.01;62.40
9855;BME280;4966;48.112;9.282;2023-04-30T08:20:14;94856.78;;;15.03;62.28
9855;BME280;4966;48.112;9.282;2023-04-30T08:22:39;94850.31;;;15.12;60.36
9855;BME280;4966;48.112;9.282;2023-04-30T08:25:05;94853.63;;;15.44;60.26
9855;BME280;4966;48.112;9.282;2023-04-30T08:27:31;94857.44;;;15.39;58.99
9855;BME280;4966;48.112;9.282;2023-04-30T08:30:00;94861.16;;;15.70;57.33
9855;BME280;4966;48.112;9.282;2023-04-30T08:32:26;94851.47;;;14.91;60.57
9855;BME280;4966;48.112;9.282;2023-04-30T08:34:53;94854.44;;;15.02;60.16
9855;BME280;4966;48.112;9.282;2023-04-30T08:37:18;94854.03;;;15.03;58.65
9855;BME280;4966;48.112;9.282;2023-04-30T08:39:46;94856.34;;;13.76;61.25
9855;BME280;4966;48.112;9.282;2023-04-30T08:42:18;94853.34;;;13.81;61.36
9855;BME280;4966;48.112;9.282;2023-04-30T08:44:53;94850.66;;;14.16;62.37
9855;BME280;4966;48.112;9.282;2023-04-30T08:47:26;94839.00;;;14.39;63.52
9855;BME280;4966;48.112;9.282;2023-04-30T08:49:54;94845.81;;;14.45;60.65
9855;BME280;4966;48.112;9.282;2023-04-30T08:52:27;94861.94;;;14.50;60.46
9855;BME280;4966;48.112;9.282;2023-04-30T08:54:56;94857.09;;;14.59;61.03
9855;BME280;4966;48.112;9.282;2023-04-30T08:57:22;94863.16;;;14.68;60.92
9855;BME280;4966;48.112;9.282;2023-04-30T08:59:47;94861.19;;;14.88;60.10
9855;BME280;4966;48.112;9.282;2023-04-30T09:02:13;94865.44;;;14.86;61.02
9855;BME280;4966;48.112;9.282;2023-04-30T09:04:38;94858.75;;;14.64;58.25
9855;BME280;4966;48.112;9.282;2023-04-30T09:07:04;94849.44;;;15.07;56.68
9855;BME280;4966;48.112;9.282;2023-04-30T09:09:37;94856.34;;;15.86;56.39
9855;BME280;4966;48.112;9.282;2023-04-30T09:12:13;94852.41;;;14.79;57.50
9855;BME280;4966;48.112;9.282;2023-04-30T09:14:40;94856.06;;;14.67;58.60
9855;BME280;4966;48.112;9.282;2023-04-30T09:17:19;94861.03;;;15.01;58.02
9855;BME280;4966;48.112;9.282;2023-04-30T09:19:48;94843.53;;;14.66;58.26
9855;BME280;4966;48.112;9.282;2023-04-30T09:22:24;94853.78;;;14.70;59.59
9855;BME280;4966;48.112;9.282;2023-04-30T09:24:50;94855.44;;;14.39;58.92
9855;BME280;4966;48.112;9.282;2023-04-30T09:27:20;94863.41;;;15.22;56.43
9855;BME280;4966;48.112;9.282;2023-04-30T09:29:50;94858.34;;;15.24;56.65
9855;BME280;4966;48.112;9.282;2023-04-30T09:32:30;94859.13;;;15.67;55.76
9855;BME280;4966;48.112;9.282;2023-04-30T09:34:56;94855.28;;;16.48;53.06
9855;BME280;4966;48.112;9.282;2023-04-30T09:37:34;94856.91;;;16.79;52.91
9855;BME280;4966;48.112;9.282;2023-04-30T09:40:01;94847.13;;;17.15;49.93
9855;BME280;4966;48.112;9.282;2023-04-30T09:42:26;94856.13;;;15.99;53.02
9855;BME280;4966;48.112;9.282;2023-04-30T09:44:52;94847.19;;;15.32;53.71
9855;BME280;4966;48.112;9.282;2023-04-30T09:47:18;94852.59;;;15.09;54.49
9855;BME280;4966;48.112;9.282;2023-04-30T09:49:49;94852.16;;;15.50;54.55
9855;BME280;4966;48.112;9.282;2023-04-30T09:52:21;94847.97;;;16.29;52.85
9855;BME280;4966;48.112;9.282;2023-04-30T09:54:46;94842.19;;;17.32;50.10
9855;BME280;4966;48.112;9.282;2023-04-30T09:57:13;94840.56;;;16.06;49.26
9855;BME280;4966;48.112;9.282;2023-04-30T09:59:43;94848.91;;;16.13;50.27
9855;BME280;4966;48.112;9.282;2023-04-30T10:02:09;94859.53;;;15.92;51.12
9855;BME280;4966;48.112;9.282;2023-04-30T10:04:42;94848.22;;;15.47;52.85
9855;BME280;4966;48.112;9.282;2023-04-30T10:10:03;94847.97;;;16.29;50.31
9855;BME280;4966;48.112;9.282;2023-04-30T10:15:26;94857.66;;;16.49;50.63
9855;BME280;4966;48.112;9.282;2023-04-30T10:18:06;94846.91;;;16.10;50.99
9855;BME280;4966;48.112;9.282;2023-04-30T10:20:35;94854.06;;;15.92;50.50
9855;BME280;4966;48.112;9.282;2023-04-30T10:23:07;94846.66;;;16.49;49.90
9855;BME280;4966;48.112;9.282;2023-04-30T10:25:32;94851.53;;;16.90;49.78
9855;BME280;4966;48.112;9.282;2023-04-30T10:28:01;94842.84;;;16.27;49.19
9855;BME280;4966;48.112;9.282;2023-04-30T10:30:27;94849.97;;;16.32;48.60
9855;BME280;4966;48.112;9.282;2023-04-30T10:35:49;94845.44;;;17.41;45.73
9855;BME280;4966;48.112;9.282;2023-04-30T10:38:25;94836.44;;;16.76;47.79
9855;BME280;4966;48.112;9.282;2023-04-30T10:40:59;94827.84;;;17.12;48.32
9855;BME280;4966;48.112;9.282;2023-04-30T10:43:30;94825.56;;;17.62;45.61
9855;BME280;4966;48.112;9.282;2023-04-30T10:45:57;94823.22;;;17.60;43.69
9855;BME280;4966;48.112;9.282;2023-04-30T10:48:23;94821.88;;;18.40;44.92
9855;BME280;4966;48.112;9.282;2023-04-30T10:50:57;94814.94;;;18.01;43.71
9855;BME280;4966;48.112;9.282;2023-04-30T10:53:29;94813.50;;;17.74;44.42
9855;BME280;4966;48.112;9.282;2023-04-30T10:56:03;94818.03;;;17.96;45.42
9855;BME280;4966;48.112;9.282;2023-04-30T10:58:37;94818.84;;;18.66;43.57
9855;BME280;4966;48.112;9.282;2023-04-30T11:01:16;94815.25;;;17.93;43.40
9855;BME280;4966;48.112;9.282;2023-04-30T11:04:06;94810.31;;;18.82;44.68
9855;BME280;4966;48.112;9.282;2023-04-30T11:06:53;94809.63;;;19.14;42.37
9855;BME280;4966;48.112;9.282;2023-04-30T11:09:38;94784.63;;;18.75;41.43
9855;BME280;4966;48.112;9.282;2023-04-30T11:12:18;94790.00;;;19.98;42.30
9855;BME280;4966;48.112;9.282;2023-04-30T11:14:47;94792.03;;;17.87;43.37
9855;BME280;4966;48.112;9.282;2023-04-30T11:17:22;94783.97;;;17.22;44.09
9855;BME280;4966;48.112;9.282;2023-04-30T11:19:50;94789.84;;;18.10;42.51
9855;BME280;4966;48.112;9.282;2023-04-30T11:22:21;94797.31;;;18.13;42.18
9855;BME280;4966;48.112;9.282;2023-04-30T11:27:23;94788.16;;;18.68;43.02
9855;BME280;4966;48.112;9.282;2023-04-30T11:29:53;94784.75;;;18.92;42.95
9855;BME280;4966;48.112;9.282;2023-04-30T11:32:20;94788.00;;;19.63;38.67
9855;BME280;4966;48.112;9.282;2023-04-30T11:34:48;94780.94;;;19.62;42.19
9855;BME280;4966;48.112;9.282;2023-04-30T11:37:41;94776.56;;;20.29;39.82
9855;BME280;4966;48.112;9.282;2023-04-30T11:40:11;94779.69;;;20.34;40.01
9855;BME280;4966;48.112;9.282;2023-04-30T11:42:39;94784.09;;;20.10;39.03
9855;BME280;4966;48.112;9.282;2023-04-30T11:45:12;94772.88;;;18.81;41.44
9855;BME280;4966;48.112;9.282;2023-04-30T11:47:46;94785.38;;;17.06;44.05
9855;BME280;4966;48.112;9.282;2023-04-30T11:50:14;94788.06;;;17.39;44.24
9855;BME280;4966;48.112;9.282;2023-04-30T11:52:51;94786.59;;;17.08;45.17
9855;BME280;4966;48.112;9.282;2023-04-30T11:55:21;94784.25;;;17.51;43.73
9855;BME280;4966;48.112;9.282;2023-04-30T11:57:52;94782.16;;;17.82;44.66
9855;BME280;4966;48.112;9.282;2023-04-30T12:00:27;94779.09;;;17.46;43.87
9855;BME280;4966;48.112;9.282;2023-04-30T12:02:54;94777.19;;;18.02;44.15
9855;BME280;4966;48.112;9.282;2023-04-30T12:05:24;94777.97;;;17.99;42.57
9855;BME280;4966;48.112;9.282;2023-04-30T12:07:59;94770.72;;;17.80;43.74
9855;BME280;4966;48.112;9.282;2023-04-30T12:10:31;94758.75;;;18.10;42.27
9855;BME280;4966;48.112;9.282;2023-04-30T12:13:00;94761.06;;;18.81;41.64
9855;BME280;4966;48.112;9.282;2023-04-30T12:15:29;94763.56;;;19.25;41.26
9855;BME280;4966;48.112;9.282;2023-04-30T12:18:09;94771.91;;;19.75;39.59
9855;BME280;4966;48.112;9.282;2023-04-30T12:20:36;94756.91;;;20.02;40.57
9855;BME280;4966;48.112;9.282;2023-04-30T12:23:05;94762.00;;;20.07;40.38
9855;BME280;4966;48.112;9.282;2023-04-30T12:25:39;94757.06;;;18.64;40.67
9855;BME280;4966;48.112;9.282;2023-04-30T12:28:10;94763.03;;;18.03;42.63
9855;BME280;4966;48.112;9.282;2023-04-30T12:30:38;94762.03;;;17.74;43.08
9855;BME280;4966;48.112;9.282;2023-04-30T12:33:09;94748.59;;;16.80;44.42
9855;BME280;4966;48.112;9.282;2023-04-30T12:35:41;94761.06;;;17.52;43.95
9855;BME280;4966;48.112;9.282;2023-04-30T12:38:12;94760.31;;;17.59;43.93
9855;BME280;4966;48.112;9.282;2023-04-30T12:40:45;94763.69;;;17.38;45.17
9855;BME280;4966;48.112;9.282;2023-04-30T12:43:17;94760.84;;;17.75;43.95
9855;BME280;4966;48.112;9.282;2023-04-30T12:45:49;94747.81;;;19.51;40.34
9855;BME280;4966;48.112;9.282;2023-04-30T12:48:51;94753.75;;;19.82;39.33
9855;BME280;4966;48.112;9.282;2023-04-30T12:51:27;94743.84;;;19.23;39.34
9855;BME280;4966;48.112;9.282;2023-04-30T12:53:52;94742.50;;;20.68;37.87
9855;BME280;4966;48.112;9.282;2023-04-30T12:56:18;94734.19;;;21.45;37.25
9855;BME280;4966;48.112;9.282;2023-04-30T12:58:45;94731.41;;;21.94;35.75
9855;BME280;4966;48.112;9.282;2023-04-30T13:01:19;94717.44;;;23.11;32.84
9855;BME280;4966;48.112;9.282;2023-04-30T13:03:46;94733.44;;;23.27;33.63
9855;BME280;4966;48.112;9.282;2023-04-30T13:06:11;94738.63;;;24.03;32.52
9855;BME280;4966;48.112;9.282;2023-04-30T13:08:37;94736.47;;;23.63;32.59
9855;BME280;4966;48.112;9.282;2023-04-30T13:11:02;94723.69;;;23.15;32.36
9855;BME280;4966;48.112;9.282;2023-04-30T13:13:28;94729.63;;;21.17;35.39
9855;BME280;4966;48.112;9.282;2023-04-30T13:15:53;94743.06;;;20.12;37.41
9855;BME280;4966;48.112;9.282;2023-04-30T13:18:19;94734.75;;;20.16;37.72
9855;BME280;4966;48.112;9.282;2023-04-30T13:20:44;94740.34;;;19.59;39.22
9855;BME280;4966;48.112;9.282;2023-04-30T13:23:10;94739.81;;;18.81;40.07
9855;BME280;4966;48.112;9.282;2023-04-30T13:25:39;94731.09;;;20.58;38.75
9855;BME280;4966;48.112;9.282;2023-04-30T13:28:06;94722.25;;;23.34;34.55
9855;BME280;4966;48.112;9.282;2023-04-30T13:30:31;94702.41;;;24.90;30.04
9855;BME280;4966;48.112;9.282;2023-04-30T13:32:56;94711.00;;;26.01;29.49
9855;BME280;4966;48.112;9.282;2023-04-30T13:35:23;94706.53;;;24.41;30.55
9855;BME280;4966;48.112;9.282;2023-04-30T13:37:48;94704.06;;;25.23;29.65
9855;BME280;4966;48.112;9.282;2023-04-30T13:40:17;94703.09;;;25.50;27.75
9855;BME280;4966;48.112;9.282;2023-04-30T13:42:44;94708.81;;;25.59;29.71
9855;BME280;4966;48.112;9.282;2023-04-30T13:45:10;94714.47;;;26.50;28.04
9855;BME280;4966;48.112;9.282;2023-04-30T13:47:35;94704.50;;;27.72;25.50
9855;BME280;4966;48.112;9.282;2023-04-30T13:50:02;94718.19;;;24.76;28.67
9855;BME280;4966;48.112;9.282;2023-04-30T13:52:27;94717.22;;;22.64;31.82
9855;BME280;4966;48.112;9.282;2023-04-30T13:54:52;94707.75;;;23.23;32.75
9855;BME280;4966;48.112;9.282;2023-04-30T13:57:18;94704.00;;;24.51;30.94